Time;durP1;ratioP1;P1;durP2;ratioP2;P2;SDS_P1;SDS_P2;PMS_P1;PMS_P2;Temp;Humidity;BMP_temperature;BMP_pressure;BME280_temperature;BME280_humidity;BME280_pressure;Samples;Min_cycle;Max_cycle;Signal;HPM_P1;HPM_P2
2023/06/03 00:01:51;;;;;;;31.95;28.85;;;12.90;1.00;;;;;;5035129;28;20564;-62
2023/06/03 00:04:17;;;;;;;31.83;28.92;;;13.00;99.90;;;;;;5047079;28;20463;-61
2023/06/03 00:06:43;;;;;;;33.80;30.10;;;13.00;99.90;;;;;;5047352;28;20040;-61
2023/06/03 00:09:09;;;;;;;33.45;30.02;;;12.80;99.90;;;;;;5048535;28;20045;-61
2023/06/03 00:11:37;;;;;;;33.72;30.08;;;12.90;99.90;;;;;;5049105;28;20044;-61
2023/06/03 00:14:04;;;;;;;32.60;29.55;;;12.80;99.90;;;;;;5048851;28;20395;-61
2023/06/03 00:16:32;;;;;;;32.53;29.58;;;13.00;99.90;;;;;;5046277;28;20123;-61
2023/06/03 00:18:58;;;;;;;32.58;29.55;;;12.70;99.90;;;;;;5052540;28;20185;-62
2023/06/03 00:21:24;;;;;;;32.63;29.48;;;12.70;99.90;;;;;;5038431;28;20084;-61
2023/06/03 00:23:49;;;;;;;31.60;28.92;;;12.70;99.90;;;;;;5035801;28;20045;-62
2023/06/03 00:26:15;;;;;;;33.45;30.17;;;12.80;99.90;;;;;;5042239;28;20059;-61
2023/06/03 00:28:41;;;;;;;33.83;30.70;;;13.20;99.90;;;;;;5052733;28;20036;-61
2023/06/03 00:31:07;;;;;;;31.77;29.13;;;12.80;99.90;;;;;;5042911;28;20044;-62
2023/06/03 00:33:32;;;;;;;32.72;29.52;;;12.70;99.90;;;;;;5052859;28;20175;-62
2023/06/03 00:35:58;;;;;;;31.73;28.95;;;12.60;99.90;;;;;;5052415;28;20045;-62
2023/06/03 00:38:23;;;;;;;31.70;28.90;;;12.60;99.90;;;;;;5048232;28;20040;-61
2023/06/03 00:40:49;;;;;;;31.73;28.70;;;12.70;66.80;;;;;;5044140;28;20088;-62
2023/06/03 00:43:14;;;;;;;33.00;29.90;;;12.60;13.00;;;;;;5048922;28;20064;-62
2023/06/03 00:45:40;;;;;;;32.35;29.40;;;12.70;1.00;;;;;;5052012;28;20511;-61
2023/06/03 00:48:06;;;;;;;32.00;28.80;;;12.90;1.00;;;;;;5052338;28;20040;-61
2023/06/03 00:50:32;;;;;;;33.28;30.25;;;12.50;1.00;;;;;;5048109;28;20036;-61
2023/06/03 00:53:00;;;;;;;31.80;29.02;;;12.60;99.90;;;;;;5042041;28;20033;-63
2023/06/03 00:55:26;;;;;;;32.33;29.33;;;12.40;99.90;;;;;;5052311;28;20052;-61
2023/06/03 00:57:52;;;;;;;32.45;29.58;;;12.40;99.90;;;;;;5052118;28;20044;-61
2023/06/03 01:00:18;;;;;;;33.28;30.27;;;12.40;87.40;;;;;;5036028;28;20081;-62
2023/06/03 01:02:44;;;;;;;31.65;28.95;;;12.40;1.00;;;;;;5051722;28;20110;-61
2023/06/03 01:05:11;;;;;;;33.05;30.02;;;12.40;1.00;;;;;;5048824;28;20041;-62
2023/06/03 01:08:00;;;;;;;33.92;31.00;;;13.10;99.90;;;;;;5043544;28;20030;-61
2023/06/03 01:10:43;;;;;;;32.38;29.42;;;12.30;99.90;;;;;;5039242;28;20071;-61
2023/06/03 01:13:28;;;;;;;33.17;30.63;;;12.10;1.00;;;;;;5037053;28;20049;-61
2023/06/03 01:15:55;;;;;;;32.58;29.98;;;12.10;99.90;;;;;;5043411;28;20045;-61
2023/06/03 01:18:21;;;;;;;33.17;30.33;;;11.90;99.90;;;;;;5032366;28;20045;-61
2023/06/03 01:20:50;;;;;;;33.72;31.10;;;11.80;46.60;;;;;;5048462;28;20052;-62
2023/06/03 01:23:28;;;;;;;33.33;30.67;;;11.80;1.00;;;;;;5035717;28;20040;-62
2023/06/03 01:25:56;;;;;;;33.38;30.58;;;11.70;1.00;;;;;;5034221;28;20095;-61
2023/06/03 01:28:23;;;;;;;33.60;30.95;;;11.70;99.90;;;;;;5032044;28;20094;-62
2023/06/03 01:30:50;;;;;;;35.13;32.22;;;11.50;99.90;;;;;;5057716;28;20041;-61
2023/06/03 01:33:18;;;;;;;33.80;31.05;;;11.90;99.90;;;;;;5051667;28;20486;-61
2023/06/03 01:35:45;;;;;;;33.78;31.00;;;11.50;99.90;;;;;;5046788;28;20056;-61
2023/06/03 01:38:11;;;;;;;33.78;30.98;;;11.60;59.60;;;;;;5049154;28;20403;-62
2023/06/03 01:40:38;;;;;;;32.45;30.05;;;11.60;1.00;;;;;;5051419;28;20049;-61
2023/06/03 01:43:04;;;;;;;33.08;30.20;;;11.50;1.00;;;;;;5048834;28;20056;-61
2023/06/03 01:45:30;;;;;;;33.22;30.42;;;11.50;99.90;;;;;;5042433;28;20086;-61
2023/06/03 01:47:56;;;;;;;35.10;32.28;;;11.50;99.90;;;;;;5043163;28;20068;-61
2023/06/03 01:50:23;;;;;;;34.08;31.25;;;11.30;99.90;;;;;;5050941;28;20099;-61
2023/06/03 01:52:49;;;;;;;34.80;31.58;;;11.40;86.40;;;;;;5051244;28;20044;-61
2023/06/03 01:55:14;;;;;;;34.85;31.98;;;11.30;9.40;;;;;;5045157;28;20384;-61
2023/06/03 01:57:40;;;;;;;33.80;30.98;;;11.10;1.00;;;;;;5051071;28;20489;-62
2023/06/03 02:00:07;;;;;;;33.97;31.13;;;11.10;1.00;;;;;;5050592;28;20040;-61
2023/06/03 02:02:32;;;;;;;33.85;31.15;;;11.10;1.00;;;;;;5048607;28;20033;-61
2023/06/03 02:04:58;;;;;;;33.45;30.98;;;11.00;99.90;;;;;;5046345;28;20059;-62
2023/06/03 02:07:30;;;;;;;34.38;31.73;;;10.90;99.90;;;;;;5045807;28;20040;-61
2023/06/03 02:09:56;;;;;;;33.33;30.52;;;11.00;99.90;;;;;;5051097;28;20519;-61
2023/06/03 02:12:23;;;;;;;32.42;29.90;;;11.00;99.90;;;;;;5050618;28;20068;-61
2023/06/03 02:14:53;;;;;;;31.05;28.55;;;11.00;99.90;;;;;;5050173;28;20045;-61
2023/06/03 02:17:24;;;;;;;30.90;28.50;;;11.00;99.90;;;;;;5042146;28;20446;-62
2023/06/03 02:19:50;;;;;;;29.77;27.35;;;11.10;99.90;;;;;;5050829;28;20490;-61
2023/06/03 02:22:17;;;;;;;26.83;24.70;;;11.80;99.90;;;;;;5050721;28;20047;-61
2023/06/03 02:24:43;;;;;;;27.73;25.52;;;11.30;99.90;;;;;;5050900;28;20208;-61
2023/06/03 02:27:09;;;;;;;28.80;26.63;;;11.40;99.90;;;;;;5035223;28;20087;-61
2023/06/03 02:29:34;;;;;;;30.45;28.15;;;11.50;99.90;;;;;;5032510;28;20490;-62
2023/06/03 02:32:01;;;;;;;29.65;27.25;;;11.50;99.90;;;;;;5050746;28;20040;-61
2023/06/03 02:34:27;;;;;;;27.65;25.55;;;11.90;13.20;;;;;;5045655;28;20028;-62
2023/06/03 02:36:53;;;;;;;28.17;25.77;;;11.60;1.00;;;;;;5048862;28;20498;-61
2023/06/03 02:39:19;;;;;;;29.27;27.08;;;11.60;99.90;;;;;;5050442;28;20037;-61
2023/06/03 02:41:46;;;;;;;28.25;25.88;;;11.70;99.90;;;;;;5050362;28;20037;-61
2023/06/03 02:44:16;;;;;;;31.10;28.80;;;13.00;99.90;;;;;;5049593;28;20060;-61
2023/06/03 02:46:42;;;;;;;31.17;28.88;;;11.70;59.20;;;;;;5049830;28;20059;-61
2023/06/03 02:49:08;;;;;;;31.20;28.50;;;11.70;1.00;;;;;;5048953;28;20033;-61
2023/06/03 02:51:36;;;;;;;27.92;25.92;;;11.70;1.00;;;;;;5030396;28;20076;-62
2023/06/03 02:54:02;;;;;;;29.45;26.88;;;11.70;99.90;;;;;;5047152;28;20052;-62
2023/06/03 02:56:28;;;;;;;29.50;27.25;;;11.70;99.90;;;;;;5049887;28;20090;-61
2023/06/03 02:58:56;;;;;;;27.63;25.63;;;11.70;99.90;;;;;;5049940;28;20053;-62
2023/06/03 03:01:23;;;;;;;27.95;25.55;;;11.70;99.90;;;;;;5037607;28;20041;-62
2023/06/03 03:03:49;;;;;;;26.80;24.75;;;11.80;82.10;;;;;;5061295;28;20052;-62
2023/06/03 03:06:15;;;;;;;24.60;22.88;;;11.80;1.00;;;;;;5049844;28;20067;-61
2023/06/03 03:08:42;;;;;;;23.23;21.52;;;11.80;1.00;;;;;;5049870;28;20495;-62
2023/06/03 03:11:09;;;;;;;20.17;18.50;;;11.80;1.00;;;;;;5045004;28;20582;-61
2023/06/03 03:13:35;;;;;;;16.65;15.45;;;11.90;99.90;;;;;;5046119;28;20071;-61
2023/06/03 03:16:01;;;;;;;17.00;15.63;;;12.30;99.90;;;;;;5049779;28;20060;-61
2023/06/03 03:18:27;;;;;;;18.70;16.98;;;12.00;99.90;;;;;;5048599;28;20207;-62
2023/06/03 03:20:52;;;;;;;16.60;15.30;;;12.10;99.90;;;;;;5038420;28;20124;-62
2023/06/03 03:23:18;;;;;;;14.65;13.55;;;12.20;69.50;;;;;;5043056;28;20052;-61
2023/06/03 03:25:45;;;;;;;14.43;13.32;;;12.20;1.00;;;;;;5049623;28;20041;-61
2023/06/03 03:28:11;;;;;;;14.55;13.35;;;12.30;1.00;;;;;;5049888;28;20033;-62
2023/06/03 03:30:37;;;;;;;17.00;15.70;;;12.40;1.00;;;;;;5041263;28;20041;-62
2023/06/03 03:33:06;;;;;;;15.98;14.80;;;12.40;1.00;;;;;;5034262;28;20044;-61
2023/06/03 03:35:32;;;;;;;16.42;15.23;;;12.40;1.00;;;;;;5042086;28;20525;-61
2023/06/03 03:38:05;;;;;;;14.85;13.75;;;12.40;99.90;;;;;;5047822;28;20052;-61
2023/06/03 03:40:32;;;;;;;15.38;14.27;;;12.30;99.90;;;;;;5049748;28;20048;-61
2023/06/03 03:42:59;;;;;;;18.02;16.35;;;12.30;99.90;;;;;;5043311;28;20069;-61
2023/06/03 03:45:30;;;;;;;19.17;17.67;;;12.60;99.90;;;;;;5048470;28;20060;-61
2023/06/03 03:48:04;;;;;;;21.23;19.83;;;12.20;99.90;;;;;;5028874;28;20037;-61
2023/06/03 03:50:50;;;;;;;21.15;19.55;;;12.20;99.90;;;;;;5036375;28;20414;-61
2023/06/03 03:53:29;;;;;;;16.83;15.55;;;12.10;99.90;;;;;;5049066;28;20103;-62
2023/06/03 03:55:57;;;;;;;19.75;18.35;;;12.10;99.90;;;;;;5049446;28;20049;-61
2023/06/03 03:58:23;;;;;;;18.60;17.23;;;12.10;99.90;;;;;;5044898;28;20385;-62
2023/06/03 04:00:50;;;;;;;17.17;15.88;;;12.10;99.90;;;;;;5041525;28;20049;-63
2023/06/03 04:03:17;;;;;;;17.90;16.42;;;12.10;99.90;;;;;;5048374;28;20041;-62
2023/06/03 04:05:44;;;;;;;19.05;17.52;;;12.10;99.90;;;;;;5042935;28;20041;-62
2023/06/03 04:08:20;;;;;;;16.92;15.55;;;12.60;99.90;;;;;;5027784;28;20045;-61
2023/06/03 04:10:46;;;;;;;18.38;16.88;;;12.00;99.90;;;;;;5029226;28;20037;-61
2023/06/03 04:13:11;;;;;;;19.23;17.40;;;12.10;99.90;;;;;;5039539;28;20410;-61
2023/06/03 04:15:38;;;;;;;19.00;17.60;;;12.10;99.90;;;;;;5048537;28;20037;-62
2023/06/03 04:18:04;;;;;;;18.52;17.23;;;12.00;99.90;;;;;;5047751;28;20150;-61
2023/06/03 04:20:43;;;;;;;19.73;18.23;;;12.00;99.90;;;;;;5049064;28;20143;-61
2023/06/03 04:23:20;;;;;;;17.45;16.05;;;12.00;99.90;;;;;;5047332;28;20091;-61
2023/06/03 04:25:46;;;;;;;18.55;17.15;;;11.90;99.90;;;;;;5048775;28;20041;-61
2023/06/03 04:28:12;;;;;;;19.23;17.73;;;11.90;99.90;;;;;;5049180;28;20116;-61
2023/06/03 04:30:38;;;;;;;17.15;15.82;;;11.90;99.90;;;;;;5045882;28;20195;-62
2023/06/03 04:33:04;;;;;;;17.95;16.55;;;11.90;99.90;;;;;;5048751;28;20041;-62
2023/06/03 04:35:29;;;;;;;17.02;15.65;;;11.90;99.90;;;;;;5046759;28;20503;-61
2023/06/03 04:37:59;;;;;;;17.45;16.05;;;12.00;99.90;;;;;;5049312;28;20075;-62
2023/06/03 04:40:26;;;;;;;17.88;16.33;;;12.50;99.90;;;;;;5045455;28;20040;-61
2023/06/03 04:42:52;;;;;;;18.33;17.02;;;13.30;99.90;;;;;;5036803;28;20049;-61
2023/06/03 04:45:21;;;;;;;17.65;16.15;;;12.00;99.90;;;;;;5048359;28;20440;-62
2023/06/03 04:47:47;;;;;;;18.02;16.73;;;12.10;99.90;;;;;;5046545;28;20484;-62
2023/06/03 04:50:20;;;;;;;15.20;14.02;;;12.00;99.90;;;;;;5029035;28;20164;-62
2023/06/03 04:52:47;;;;;;;13.48;12.43;;;12.10;99.90;;;;;;5035814;28;20067;-62
2023/06/03 04:55:13;;;;;;;15.27;14.23;;;12.20;99.90;;;;;;5048483;28;20037;-61
2023/06/03 04:57:38;;;;;;;15.80;14.70;;;12.20;99.90;;;;;;5045319;28;20044;-61
2023/06/03 05:00:06;;;;;;;15.02;13.93;;;12.30;99.90;;;;;;5028582;28;20049;-61
2023/06/03 05:02:32;;;;;;;15.43;14.23;;;12.30;99.90;;;;;;5055033;28;20127;-61
2023/06/03 05:04:58;;;;;;;14.30;13.15;;;12.70;99.90;;;;;;5050512;28;20487;-61
2023/06/03 05:07:24;;;;;;;13.75;12.70;;;12.40;99.90;;;;;;5052302;28;20326;-62
2023/06/03 05:09:50;;;;;;;15.35;14.05;;;12.50;99.90;;;;;;5052014;28;20052;-62
2023/06/03 05:12:18;;;;;;;11.98;10.85;;;12.60;99.90;;;;;;5050514;28;20124;-61
2023/06/03 05:14:44;;;;;;;11.77;10.40;;;12.70;99.90;;;;;;5049830;28;20115;-61
2023/06/03 05:17:10;;;;;;;8.95;8.05;;;12.80;99.90;;;;;;5048125;28;20128;-62
2023/06/03 05:19:35;;;;;;;7.60;7.00;;;13.20;99.90;;;;;;5051589;28;20111;-62
2023/06/03 05:22:03;;;;;;;8.30;7.70;;;12.90;99.90;;;;;;5051963;28;20041;-61
2023/06/03 05:24:29;;;;;;;8.10;7.32;;;13.00;99.90;;;;;;5051764;28;20072;-61
2023/06/03 05:26:54;;;;;;;10.05;7.32;;;13.00;99.90;;;;;;5037095;28;20087;-61
2023/06/03 05:29:20;;;;;;;8.15;6.10;;;13.10;99.90;;;;;;5053909;28;20033;-62
2023/06/03 05:31:45;;;;;;;6.00;5.20;;;13.20;99.90;;;;;;5048824;28;20576;-62
2023/06/03 05:34:12;;;;;;;7.10;6.38;;;13.20;99.90;;;;;;5051287;28;20406;-62
2023/06/03 05:36:38;;;;;;;6.53;5.93;;;13.30;99.90;;;;;;5052016;28;20102;-62
2023/06/03 05:39:03;;;;;;;5.93;5.32;;;13.40;99.90;;;;;;5051280;28;20040;-61
2023/06/03 05:41:29;;;;;;;6.03;5.35;;;13.40;99.90;;;;;;5048907;28;20471;-62
2023/06/03 05:43:54;;;;;;;5.85;4.78;;;13.50;99.90;;;;;;5050882;28;20095;-62
2023/06/03 05:46:20;;;;;;;3.92;3.63;;;13.50;99.90;;;;;;5051651;28;20037;-61
2023/06/03 05:48:47;;;;;;;4.55;4.05;;;13.60;99.90;;;;;;5049925;28;20365;-62
2023/06/03 05:51:13;;;;;;;5.40;3.00;;;13.80;99.90;;;;;;5037932;28;20554;-61
2023/06/03 05:53:43;;;;;;;3.65;2.83;;;14.00;99.90;;;;;;5043566;28;20125;-62
2023/06/03 05:56:09;;;;;;;3.92;2.83;;;13.80;99.90;;;;;;5051516;28;20124;-62
2023/06/03 05:58:35;;;;;;;3.50;2.63;;;13.90;99.90;;;;;;5047633;28;20483;-62
2023/06/03 06:01:01;;;;;;;3.75;2.30;;;14.00;99.90;;;;;;5036873;28;20116;-62
2023/06/03 06:03:26;;;;;;;3.10;2.30;;;14.10;99.00;;;;;;5041010;28;20120;-62
2023/06/03 06:05:52;;;;;;;3.83;2.33;;;14.10;93.40;;;;;;5040488;28;20060;-62
2023/06/03 06:08:17;;;;;;;4.75;2.40;;;14.20;76.50;;;;;;5049460;28;20087;-62
2023/06/03 06:10:43;;;;;;;7.95;2.40;;;14.30;71.50;;;;;;5049117;28;20040;-62
2023/06/03 06:13:08;;;;;;;4.45;2.28;;;14.40;60.60;;;;;;5050790;28;20037;-61
2023/06/03 06:15:34;;;;;;;4.35;2.13;;;14.50;63.60;;;;;;5045861;28;20045;-62
2023/06/03 06:18:00;;;;;;;4.28;1.90;;;14.60;62.50;;;;;;5046866;28;20090;-61
2023/06/03 06:20:25;;;;;;;7.22;2.20;;;14.80;43.90;;;;;;5047155;28;20114;-61
2023/06/03 06:22:52;;;;;;;8.43;2.20;;;14.80;33.30;;;;;;5047233;28;20464;-62
2023/06/03 06:25:18;;;;;;;6.45;2.13;;;14.90;25.00;;;;;;5048510;28;20041;-62
2023/06/03 06:27:43;;;;;;;4.63;1.95;;;14.50;3.90;;;;;;5042485;28;20529;-62
2023/06/03 06:30:11;;;;;;;6.03;2.22;;;15.00;1.00;;;;;;5046402;28;20040;-62
2023/06/03 06:33:03;;;;;;;5.65;2.00;;;15.10;1.00;;;;;;5040842;28;20117;-62
2023/06/03 06:35:30;;;;;;;5.18;1.85;;;15.00;1.00;;;;;;5038896;28;20053;-62
2023/06/03 06:37:57;;;;;;;4.68;1.80;;;14.90;1.00;;;;;;5046200;28;20522;-62
2023/06/03 06:40:29;;;;;;;3.40;2.00;;;14.80;1.00;;;;;;5047646;28;20037;-62
2023/06/03 06:42:55;;;;;;;4.50;2.08;;;14.80;1.00;;;;;;5042497;28;20052;-62
2023/06/03 06:45:28;;;;;;;7.75;2.95;;;14.70;1.00;;;;;;5048494;28;20090;-62
2023/06/03 06:48:08;;;;;;;9.57;2.55;;;14.70;1.00;;;;;;5047151;28;20277;-62
2023/06/03 06:50:46;;;;;;;11.10;2.58;;;14.70;1.00;;;;;;5049429;28;20064;-62
2023/06/03 06:53:13;;;;;;;7.45;2.70;;;14.60;1.00;;;;;;5046811;28;20491;-62
2023/06/03 06:55:47;;;;;;;7.20;2.28;;;14.60;1.00;;;;;;5044489;28;20079;-62
2023/06/03 06:58:14;;;;;;;5.68;2.38;;;14.90;1.00;;;;;;5046280;28;20072;-62
2023/06/03 07:00:39;;;;;;;9.07;2.47;;;15.20;1.00;;;;;;5038887;28;20095;-62
2023/06/03 07:03:09;;;;;;;5.28;2.30;;;15.60;1.00;;;;;;5057183;28;20073;-62
2023/06/03 07:05:35;;;;;;;4.45;2.08;;;15.90;1.00;;;;;;5042519;28;20033;-62
2023/06/03 07:08:01;;;;;;;4.50;2.30;;;15.90;1.00;;;;;;5039285;28;20048;-62
2023/06/03 07:10:27;;;;;;;8.90;2.47;;;16.30;1.00;;;;;;5047119;28;20040;-62
2023/06/03 07:12:53;;;;;;;6.55;2.10;;;16.40;1.00;;;;;;5049799;28;20029;-62
2023/06/03 07:15:20;;;;;;;2.53;1.85;;;16.60;1.00;;;;;;5049345;28;20410;-62
2023/06/03 07:17:53;;;;;;;6.53;2.10;;;16.70;1.00;;;;;;5047556;28;20056;-62
2023/06/03 07:20:32;;;;;;;3.78;1.90;;;17.00;1.00;;;;;;5044871;28;20053;-62
2023/06/03 07:22:58;;;;;;;6.53;2.20;;;17.10;1.00;;;;;;5047718;28;20047;-62
2023/06/03 07:25:36;;;;;;;2.58;1.90;;;17.20;1.00;;;;;;5045868;28;20041;-62
2023/06/03 07:28:08;;;;;;;3.65;2.08;;;17.30;1.00;;;;;;5043780;28;20553;-62
2023/06/03 07:30:36;;;;;;;5.78;1.77;;;17.40;1.00;;;;;;5024457;28;20064;-62
2023/06/03 07:33:02;;;;;;;3.88;1.95;;;17.60;1.00;;;;;;5045931;28;20037;-62
2023/06/03 07:35:28;;;;;;;3.17;1.80;;;17.70;1.00;;;;;;5046735;28;20593;-62
2023/06/03 07:37:55;;;;;;;2.92;1.90;;;17.90;1.00;;;;;;5047433;28;20044;-62
2023/06/03 07:40:45;;;;;;;5.15;1.73;;;18.10;1.00;;;;;;5031181;28;20045;-62
2023/06/03 07:43:12;;;;;;;6.03;1.95;;;18.20;1.00;;;;;;5039479;28;20045;-62
2023/06/03 07:45:38;;;;;;;2.53;1.70;;;18.20;1.00;;;;;;5048120;28;20072;-62
2023/06/03 07:48:08;;;;;;;6.03;2.00;;;18.30;1.00;;;;;;5032823;28;20551;-62
2023/06/03 07:50:33;;;;;;;5.00;2.00;;;18.50;1.00;;;;;;5042929;28;20167;-62
2023/06/03 07:53:01;;;;;;;2.70;1.90;;;18.60;1.00;;;;;;5039878;28;20133;-62
2023/06/03 07:55:36;;;;;;;2.85;1.90;;;18.90;1.00;;;;;;5047587;28;20064;-63
2023/06/03 07:58:02;;;;;;;6.73;2.00;;;18.90;1.00;;;;;;5034240;28;20072;-62
2023/06/03 08:00:27;;;;;;;5.88;1.83;;;19.00;1.00;;;;;;5041304;28;20323;-64
2023/06/03 08:02:53;;;;;;;3.28;1.90;;;19.30;1.00;;;;;;5040111;28;20128;-64
2023/06/03 08:05:30;;;;;;;2.95;1.73;;;19.60;1.00;;;;;;5044058;28;20501;-64
2023/06/03 08:07:55;;;;;;;3.78;1.65;;;19.30;1.00;;;;;;5041277;28;20064;-64
2023/06/03 08:10:23;;;;;;;5.25;1.85;;;19.50;1.00;;;;;;5044813;28;20439;-65
2023/06/03 08:12:49;;;;;;;2.67;1.67;;;19.70;1.00;;;;;;5037728;28;20041;-62
2023/06/03 08:15:27;;;;;;;5.00;2.10;;;19.80;1.00;;;;;;5047400;28;20036;-62
2023/06/03 08:17:53;;;;;;;2.30;1.50;;;20.10;1.00;;;;;;5047404;28;20521;-62
2023/06/03 08:20:28;;;;;;;4.05;1.60;;;20.30;1.00;;;;;;5047678;28;20147;-62
2023/06/03 08:22:55;;;;;;;4.78;1.83;;;20.40;1.00;;;;;;5037128;28;20498;-62
2023/06/03 08:25:21;;;;;;;3.92;2.00;;;20.50;1.00;;;;;;5047352;28;20041;-62
2023/06/03 08:27:47;;;;;;;6.60;2.05;;;20.40;1.00;;;;;;5045532;28;20368;-62
2023/06/03 08:30:13;;;;;;;4.70;1.98;;;20.50;1.00;;;;;;5041080;28;20537;-62
2023/06/03 08:32:40;;;;;;;3.15;1.70;;;20.70;1.00;;;;;;5040367;28;20119;-62
2023/06/03 08:35:13;;;;;;;3.40;1.50;;;20.70;1.00;;;;;;5047342;28;20494;-62
2023/06/03 08:37:39;;;;;;;4.15;1.65;;;20.70;1.00;;;;;;5032538;28;20048;-62
2023/06/03 08:40:09;;;;;;;1.95;1.50;;;20.70;1.00;;;;;;5049445;28;20071;-62
2023/06/03 08:42:45;;;;;;;3.08;1.33;;;20.50;99.90;;;;;;5044330;28;20640;-62
2023/06/03 08:45:16;;;;;;;3.67;1.60;;;20.50;99.90;;;;;;5046879;28;20053;-62
2023/06/03 08:48:00;;;;;;;6.55;2.03;;;20.50;99.90;;;;;;5045700;28;20406;-67
2023/06/03 08:50:27;;;;;;;2.60;1.70;;;20.90;99.90;;;;;;5051482;28;20051;-66
2023/06/03 08:52:54;;;;;;;2.70;1.40;;;20.80;99.90;;;;;;5042083;28;20041;-64
2023/06/03 08:55:21;;;;;;;3.63;1.60;;;20.80;99.90;;;;;;5051062;28;20059;-63
2023/06/03 08:58:04;;;;;;;1.55;1.38;;;21.00;99.90;;;;;;5052564;28;20067;-63
2023/06/03 09:00:31;;;;;;;4.18;1.77;;;21.10;99.90;;;;;;5051877;28;20402;-63
2023/06/03 09:02:57;;;;;;;3.05;1.48;;;21.20;99.90;;;;;;5051868;28;20041;-63
2023/06/03 09:05:23;;;;;;;4.63;1.42;;;21.20;99.90;;;;;;5051830;28;20114;-63
2023/06/03 09:07:51;;;;;;;1.83;1.42;;;21.40;99.90;;;;;;5051482;28;20539;-63
2023/06/03 09:10:18;;;;;;;3.63;1.50;;;21.80;99.90;;;;;;5051873;28;20032;-63
2023/06/03 09:12:45;;;;;;;4.00;1.50;;;22.10;99.90;;;;;;5051928;28;20045;-63
2023/06/03 09:15:14;;;;;;;3.20;1.52;;;22.00;99.90;;;;;;5052025;28;20045;-63
2023/06/03 09:17:43;;;;;;;2.92;1.60;;;22.20;99.90;;;;;;5051748;28;20089;-63
2023/06/03 09:20:10;;;;;;;1.88;1.45;;;22.30;99.90;;;;;;5051797;28;20509;-63
2023/06/03 09:22:37;;;;;;;2.55;1.45;;;22.30;99.90;;;;;;5051757;28;20033;-63
2023/06/03 09:25:04;;;;;;;3.80;1.50;;;22.20;99.90;;;;;;5051719;28;20064;-63
2023/06/03 09:27:30;;;;;;;2.17;1.58;;;22.30;99.90;;;;;;5051518;28;20068;-63
2023/06/03 09:29:56;;;;;;;2.47;1.52;;;22.40;99.90;;;;;;5051473;28;20041;-63
2023/06/03 09:32:22;;;;;;;3.33;1.55;;;22.60;99.90;;;;;;5052195;28;20411;-63
2023/06/03 09:34:49;;;;;;;2.35;1.60;;;23.20;99.90;;;;;;5051390;28;20115;-63
2023/06/03 09:37:15;;;;;;;2.78;1.67;;;23.10;99.90;;;;;;5051469;28;20044;-63
2023/06/03 09:39:41;;;;;;;3.67;1.67;;;22.70;99.90;;;;;;5051403;28;20044;-63
2023/06/03 09:42:08;;;;;;;2.05;1.58;;;22.90;99.90;;;;;;5051852;28;20057;-63
2023/06/03 09:44:42;;;;;;;3.67;1.42;;;22.90;99.90;;;;;;5051453;28;20175;-63
2023/06/03 09:47:09;;;;;;;2.65;1.38;;;22.70;99.90;;;;;;5051421;28;20537;-63
2023/06/03 09:49:35;;;;;;;5.05;1.50;;;22.70;99.90;;;;;;5050187;28;20047;-63
2023/06/03 09:52:03;;;;;;;2.22;1.50;;;22.70;99.90;;;;;;5041635;28;20041;-63
2023/06/03 09:54:29;;;;;;;3.67;1.58;;;22.90;99.90;;;;;;5038647;28;20033;-63
2023/06/03 09:57:07;;;;;;;4.80;1.63;;;22.90;99.90;;;;;;5049974;28;20036;-63
2023/06/03 09:59:33;;;;;;;4.00;1.60;;;22.80;99.90;;;;;;5051630;28;20040;-64
2023/06/03 10:01:58;;;;;;;1.88;1.58;;;22.50;99.90;;;;;;5050538;28;20501;-64
2023/06/03 10:04:45;;;;;;;5.32;1.70;;;22.80;99.90;;;;;;5050346;28;20045;-64
2023/06/03 10:07:13;;;;;;;1.85;1.40;;;23.40;99.90;;;;;;5053496;28;20052;-64
2023/06/03 10:09:44;;;;;;;1.98;1.55;;;22.80;99.90;;;;;;5050644;28;20595;-64
2023/06/03 10:12:11;;;;;;;3.55;1.50;;;22.60;99.90;;;;;;5042403;28;20086;-66
2023/06/03 10:14:47;;;;;;;3.72;1.73;;;22.70;99.90;;;;;;5039785;28;20056;-66
2023/06/03 10:17:14;;;;;;;3.10;1.67;;;22.80;99.90;;;;;;5040850;28;20039;-65
2023/06/03 10:19:42;;;;;;;5.18;1.85;;;22.50;99.90;;;;;;5044315;28;20094;-67
2023/06/03 10:22:09;;;;;;;2.53;1.42;;;22.20;99.90;;;;;;5043671;28;20128;-67
2023/06/03 10:24:39;;;;;;;3.85;1.58;;;22.20;99.90;;;;;;5049042;28;20036;-67
2023/06/03 10:27:05;;;;;;;4.03;1.85;;;22.30;99.90;;;;;;5043771;28;20037;-66
2023/06/03 10:29:32;;;;;;;11.95;1.83;;;22.20;99.90;;;;;;5048373;28;20128;-65
2023/06/03 10:32:00;;;;;;;2.72;1.55;;;22.20;99.90;;;;;;5050329;28;20048;-64
2023/06/03 10:34:29;;;;;;;2.28;1.40;;;22.20;99.90;;;;;;5048163;28;20029;-64
2023/06/03 10:37:00;;;;;;;3.90;1.50;;;22.00;99.90;;;;;;5040578;28;20048;-64
2023/06/03 10:39:27;;;;;;;7.47;1.63;;;22.10;99.90;;;;;;5039495;28;20556;-64
2023/06/03 10:42:01;;;;;;;3.13;1.30;;;22.10;99.90;;;;;;5046029;28;20079;-65
2023/06/03 10:44:28;;;;;;;4.85;1.35;;;22.20;99.90;;;;;;5052027;28;20052;-64
2023/06/03 10:46:59;;;;;;;2.20;1.40;;;22.10;99.90;;;;;;5052719;28;20073;-64
2023/06/03 10:49:36;;;;;;;3.47;1.40;;;22.00;99.90;;;;;;5042864;28;20055;-64
2023/06/03 10:52:37;;;;;;;1.30;1.20;;;21.90;99.90;;;;;;5056048;28;20037;-65
2023/06/03 10:55:21;;;;;;;3.25;1.15;;;22.00;99.90;;;;;;5046402;28;20041;-65
2023/06/03 10:57:51;;;;;;;2.92;1.30;;;22.10;99.90;;;;;;5052832;28;20044;-65
2023/06/03 11:00:55;;;;;;;2.92;1.55;;;22.10;99.90;;;;;;5052296;28;20041;-66
2023/06/03 11:03:22;;;;;;;2.92;1.60;;;22.10;99.90;;;;;;5051831;28;20040;-65
2023/06/03 11:05:48;;;;;;;1.60;1.33;;;22.00;99.90;;;;;;5050159;28;20056;-65
2023/06/03 11:08:34;;;;;;;3.83;1.50;;;21.90;99.90;;;;;;5062024;28;20097;-65
2023/06/03 11:10:59;;;;;;;2.88;1.60;;;21.80;99.90;;;;;;5072219;28;20137;-64
2023/06/03 11:13:44;;;;;;;3.63;1.48;;;21.80;99.90;;;;;;5068525;28;20040;-66
2023/06/03 11:16:10;;;;;;;2.83;1.60;;;22.20;99.90;;;;;;5050912;28;20566;-64
2023/06/03 11:18:35;;;;;;;3.80;1.38;;;21.80;99.90;;;;;;5051653;28;20037;-64
2023/06/03 11:21:01;;;;;;;14.70;1.70;;;21.70;99.90;;;;;;5052090;28;20747;-64
2023/06/03 11:23:46;;;;;;;2.83;1.50;;;21.80;99.90;;;;;;5051714;28;20048;-62
2023/06/03 11:26:33;;;;;;;4.95;1.40;;;22.00;99.90;;;;;;5059459;28;20049;-65
2023/06/03 11:29:06;;;;;;;2.78;1.30;;;22.10;99.90;;;;;;5052516;28;20037;-64
2023/06/03 11:31:34;;;;;;;3.15;1.52;;;22.00;99.90;;;;;;5050954;28;20109;-66
2023/06/03 11:34:25;;;;;;;1.95;1.50;;;22.00;99.90;;;;;;5051900;28;20088;-65
2023/06/03 11:36:52;;;;;;;2.92;1.60;;;21.90;99.90;;;;;;5049165;28;20037;-66
2023/06/03 11:39:18;;;;;;;7.30;1.70;;;21.90;99.90;;;;;;5051702;28;20450;-63
2023/06/03 11:42:08;;;;;;;4.90;1.40;;;21.80;99.90;;;;;;5052055;28;20037;-62
2023/06/03 11:44:35;;;;;;;3.58;1.45;;;21.70;99.90;;;;;;5042550;28;20494;-63
2023/06/03 11:47:02;;;;;;;4.57;1.60;;;21.70;99.90;;;;;;5051259;28;20411;-63
2023/06/03 11:49:27;;;;;;;2.15;1.40;;;21.60;99.90;;;;;;5051300;28;20037;-64
2023/06/03 11:51:59;;;;;;;4.10;1.40;;;21.50;99.90;;;;;;5047268;28;20049;-62
2023/06/03 11:54:25;;;;;;;3.30;1.67;;;21.40;99.90;;;;;;5050728;28;20053;-63
2023/06/03 11:56:51;;;;;;;1.40;1.30;;;21.40;99.90;;;;;;5051780;28;20029;-62
2023/06/03 11:59:25;;;;;;;4.93;1.60;;;21.30;99.90;;;;;;5052018;28;20108;-61
2023/06/03 12:01:58;;;;;;;6.82;1.38;;;21.40;99.90;;;;;;5049832;28;20084;-64
2023/06/03 12:04:24;;;;;;;2.95;1.40;;;21.50;99.90;;;;;;5050344;28;20088;-64
2023/06/03 12:06:50;;;;;;;2.72;1.40;;;21.50;99.90;;;;;;5047717;28;20034;-63
2023/06/03 12:09:19;;;;;;;2.38;1.48;;;21.90;99.90;;;;;;5032111;28;20041;-62
2023/06/03 12:11:45;;;;;;;1.63;1.40;;;21.60;99.90;;;;;;5049092;28;20354;-61
2023/06/03 12:14:29;;;;;;;2.65;1.40;;;21.60;99.90;;;;;;5054413;28;20033;-61
2023/06/03 12:16:56;;;;;;;2.88;1.60;;;21.50;99.90;;;;;;5056755;28;20066;-62
2023/06/03 12:19:22;;;;;;;2.78;1.38;;;21.50;99.90;;;;;;5055667;28;20045;-61
2023/06/03 12:21:56;;;;;;;2.88;1.50;;;21.60;99.90;;;;;;5055198;28;20044;-61
2023/06/03 12:24:28;;;;;;;1.90;1.30;;;21.70;99.90;;;;;;5052226;28;20041;-63
2023/06/03 12:26:54;;;;;;;3.50;1.75;;;21.60;99.90;;;;;;5053479;28;20033;-63
2023/06/03 12:29:21;;;;;;;1.85;1.40;;;21.50;99.90;;;;;;5054390;28;20495;-63
2023/06/03 12:32:00;;;;;;;7.05;1.52;;;21.40;99.90;;;;;;5053816;28;20059;-63
2023/06/03 12:34:34;;;;;;;2.50;1.50;;;21.30;99.90;;;;;;5041880;28;20046;-64
2023/06/03 12:37:00;;;;;;;4.32;1.40;;;21.20;99.90;;;;;;5040161;28;20064;-61
2023/06/03 12:39:41;;;;;;;5.53;1.65;;;21.30;99.90;;;;;;5052488;28;20325;-61
2023/06/03 12:42:06;;;;;;;3.70;1.67;;;21.10;99.90;;;;;;5051025;28;20057;-61
2023/06/03 12:44:46;;;;;;;2.58;1.40;;;21.10;99.90;;;;;;5052267;28;20106;-61
2023/06/03 12:47:14;;;;;;;4.50;1.80;;;21.00;99.90;;;;;;5052339;28;20044;-60
2023/06/03 12:49:40;;;;;;;4.22;1.67;;;21.10;99.90;;;;;;5052210;28;20067;-62